This is the latest recevied weather packets stored in our database for station/object DG1GMY-13. If no packets are shown the sender has not sent any weather packets the latest 10 day(s).
| Time | Temp. | Humidity | Pressure | Rain* | Wind** | Luminosity | Snow |
|---|---|---|---|---|---|---|---|
| 1777347925 | 7.78° C | 70% | 1017.2 hPa | - | - | - | - |
| 1777346119 | 7.78° C | 70% | 1017.1 hPa | - | - | - | - |
| 1777344313 | 8.33° C | 68% | 1017 hPa | - | - | - | - |
| 1777342507 | 7.78° C | 70% | 1017.3 hPa | - | - | - | - |
| 1777340701 | 8.89° C | 65% | 1017.2 hPa | - | - | - | - |
| 1777338894 | 9.44° C | 62% | 1017.5 hPa | - | - | - | - |
| 1777337088 | 10° C | 60% | 1017.4 hPa | - | - | - | - |
| 1777335282 | 11.67° C | 53% | 1017.6 hPa | - | - | - | - |
| 1777333476 | 12.22° C | 49% | 1017.7 hPa | - | - | - | - |
| 1777331670 | 11.67° C | 47% | 1017.8 hPa | - | - | - | - |
| 1777329864 | 11.11° C | 50% | 1018 hPa | - | - | - | - |
| 1777328058 | 11.67° C | 49% | 1018.1 hPa | - | - | - | - |
| 1777326252 | 13.89° C | 42% | 1018.2 hPa | - | - | - | - |
| 1777324446 | 15.56° C | 34% | 1018.3 hPa | - | - | - | - |
| 1777322640 | 15.56° C | 33% | 1018.5 hPa | - | - | - | - |
| 1777320835 | 15° C | 33% | 1018.8 hPa | - | - | - | - |
| 1777319029 | 15° C | 32% | 1018.8 hPa | - | - | - | - |
| 1777317223 | 15.56° C | 31% | 1018.9 hPa | - | - | - | - |
| 1777315417 | 16.11° C | 29% | 1018.6 hPa | - | - | - | - |
| 1777313611 | 16.67° C | 32% | 1018.7 hPa | - | - | - | - |
| 1777311805 | 17.22° C | 34% | 1018.7 hPa | - | - | - | - |
| 1777309999 | 17.78° C | 34% | 1018.6 hPa | - | - | - | - |
| 1777308193 | 18.33° C | 33% | 1018.7 hPa | - | - | - | - |
| 1777306387 | 18.89° C | 30% | 1019 hPa | - | - | - | - |
| 1777304581 | 19.44° C | 33% | 1019.3 hPa | - | - | - | - |
* Rain since midnight (hover to see other rain measurements)
** Current wind speed in m/s (hover to see current wind gust speed)